sensor_id;sensor_type;location;lat;lon;timestamp;P1;durP1;ratioP1;P2;durP2;ratioP2
30149;SDS011;16962;48.646;9.026;2023-02-19T00:00:38;5.40;;;3.15;;
30149;SDS011;16962;48.646;9.026;2023-02-19T00:03:26;5.18;;;3.60;;
30149;SDS011;16962;48.646;9.026;2023-02-19T00:06:17;4.68;;;3.33;;
30149;SDS011;16962;48.646;9.026;2023-02-19T00:09:17;5.30;;;3.42;;
30149;SDS011;16962;48.646;9.026;2023-02-19T00:12:05;4.10;;;3.55;;
30149;SDS011;16962;48.646;9.026;2023-02-19T00:14:55;3.72;;;2.90;;
30149;SDS011;16962;48.646;9.026;2023-02-19T00:17:45;5.72;;;3.53;;
30149;SDS011;16962;48.646;9.026;2023-02-19T00:20:35;3.47;;;3.10;;
30149;SDS011;16962;48.646;9.026;2023-02-19T00:23:22;3.75;;;3.20;;
30149;SDS011;16962;48.646;9.026;2023-02-19T00:26:11;3.08;;;2.75;;
30149;SDS011;16962;48.646;9.026;2023-02-19T00:29:04;3.50;;;3.20;;
30149;SDS011;16962;48.646;9.026;2023-02-19T00:31:57;3.63;;;2.83;;
30149;SDS011;16962;48.646;9.026;2023-02-19T00:34:46;5.18;;;3.15;;
30149;SDS011;16962;48.646;9.026;2023-02-19T00:37:33;4.57;;;3.20;;
30149;SDS011;16962;48.646;9.026;2023-02-19T00:40:23;4.30;;;3.03;;
30149;SDS011;16962;48.646;9.026;2023-02-19T00:43:11;4.70;;;3.05;;
30149;SDS011;16962;48.646;9.026;2023-02-19T00:45:58;5.95;;;3.75;;
30149;SDS011;16962;48.646;9.026;2023-02-19T00:48:46;4.00;;;2.95;;
30149;SDS011;16962;48.646;9.026;2023-02-19T00:51:37;5.03;;;3.03;;
30149;SDS011;16962;48.646;9.026;2023-02-19T00:54:24;4.13;;;3.22;;
30149;SDS011;16962;48.646;9.026;2023-02-19T00:57:13;3.63;;;3.05;;
30149;SDS011;16962;48.646;9.026;2023-02-19T01:00:10;6.05;;;3.15;;
30149;SDS011;16962;48.646;9.026;2023-02-19T01:02:57;2.92;;;2.60;;
30149;SDS011;16962;48.646;9.026;2023-02-19T01:05:44;3.63;;;3.13;;
30149;SDS011;16962;48.646;9.026;2023-02-19T01:08:37;3.30;;;2.78;;
30149;SDS011;16962;48.646;9.026;2023-02-19T01:14:17;4.15;;;2.92;;
30149;SDS011;16962;48.646;9.026;2023-02-19T01:17:04;5.25;;;2.83;;
30149;SDS011;16962;48.646;9.026;2023-02-19T01:19:51;3.47;;;2.90;;
30149;SDS011;16962;48.646;9.026;2023-02-19T01:22:39;4.90;;;3.38;;
30149;SDS011;16962;48.646;9.026;2023-02-19T01:25:28;4.18;;;2.95;;
30149;SDS011;16962;48.646;9.026;2023-02-19T01:28:18;5.18;;;3.58;;
30149;SDS011;16962;48.646;9.026;2023-02-19T01:31:06;4.90;;;3.28;;
30149;SDS011;16962;48.646;9.026;2023-02-19T01:34:02;3.63;;;3.03;;
30149;SDS011;16962;48.646;9.026;2023-02-19T01:36:54;4.45;;;3.17;;
30149;SDS011;16962;48.646;9.026;2023-02-19T01:39:41;4.15;;;3.45;;
30149;SDS011;16962;48.646;9.026;2023-02-19T01:42:28;4.10;;;3.10;;
30149;SDS011;16962;48.646;9.026;2023-02-19T01:51:19;3.72;;;3.03;;
30149;SDS011;16962;48.646;9.026;2023-02-19T01:54:07;5.05;;;3.80;;
30149;SDS011;16962;48.646;9.026;2023-02-19T01:56:59;5.45;;;3.83;;
30149;SDS011;16962;48.646;9.026;2023-02-19T01:59:54;4.22;;;3.83;;
30149;SDS011;16962;48.646;9.026;2023-02-19T02:02:47;5.03;;;3.80;;
30149;SDS011;16962;48.646;9.026;2023-02-19T02:08:36;5.57;;;4.22;;
30149;SDS011;16962;48.646;9.026;2023-02-19T02:11:46;8.05;;;4.10;;
30149;SDS011;16962;48.646;9.026;2023-02-19T02:14:36;5.22;;;3.78;;
30149;SDS011;16962;48.646;9.026;2023-02-19T02:17:28;5.55;;;4.05;;
30149;SDS011;16962;48.646;9.026;2023-02-19T02:33:03;5.10;;;3.97;;
30149;SDS011;16962;48.646;9.026;2023-02-19T02:35:56;4.63;;;4.15;;
30149;SDS011;16962;48.646;9.026;2023-02-19T02:38:46;5.80;;;3.80;;
30149;SDS011;16962;48.646;9.026;2023-02-19T02:41:43;5.00;;;3.78;;
30149;SDS011;16962;48.646;9.026;2023-02-19T02:44:56;5.15;;;4.32;;
30149;SDS011;16962;48.646;9.026;2023-02-19T02:51:23;5.82;;;4.75;;
30149;SDS011;16962;48.646;9.026;2023-02-19T02:54:20;6.55;;;4.63;;
30149;SDS011;16962;48.646;9.026;2023-02-19T02:57:30;6.13;;;4.68;;
30149;SDS011;16962;48.646;9.026;2023-02-19T03:00:17;5.40;;;4.50;;
30149;SDS011;16962;48.646;9.026;2023-02-19T03:03:07;6.07;;;4.38;;
30149;SDS011;16962;48.646;9.026;2023-02-19T03:06:03;7.30;;;4.03;;
30149;SDS011;16962;48.646;9.026;2023-02-19T03:08:56;6.38;;;3.80;;
30149;SDS011;16962;48.646;9.026;2023-02-19T03:11:59;6.07;;;3.60;;
30149;SDS011;16962;48.646;9.026;2023-02-19T03:15:09;4.10;;;3.25;;
30149;SDS011;16962;48.646;9.026;2023-02-19T03:18:22;3.80;;;3.40;;
30149;SDS011;16962;48.646;9.026;2023-02-19T03:21:34;3.65;;;3.30;;
30149;SDS011;16962;48.646;9.026;2023-02-19T03:24:28;5.18;;;3.65;;
30149;SDS011;16962;48.646;9.026;2023-02-19T03:27:40;3.85;;;3.42;;
30149;SDS011;16962;48.646;9.026;2023-02-19T03:30:34;3.30;;;3.00;;
30149;SDS011;16962;48.646;9.026;2023-02-19T03:33:25;4.55;;;3.30;;
30149;SDS011;16962;48.646;9.026;2023-02-19T03:36:26;5.35;;;3.38;;
30149;SDS011;16962;48.646;9.026;2023-02-19T03:39:21;4.03;;;3.63;;
30149;SDS011;16962;48.646;9.026;2023-02-19T03:42:29;4.82;;;3.58;;
30149;SDS011;16962;48.646;9.026;2023-02-19T03:55:24;2.88;;;2.55;;
30149;SDS011;16962;48.646;9.026;2023-02-19T03:58:21;2.95;;;2.25;;
30149;SDS011;16962;48.646;9.026;2023-02-19T04:01:18;2.88;;;2.30;;
30149;SDS011;16962;48.646;9.026;2023-02-19T04:07:21;3.33;;;2.28;;
30149;SDS011;16962;48.646;9.026;2023-02-19T04:10:16;2.40;;;2.20;;
30149;SDS011;16962;48.646;9.026;2023-02-19T04:13:15;3.45;;;2.10;;
30149;SDS011;16962;48.646;9.026;2023-02-19T04:16:12;2.72;;;2.28;;
30149;SDS011;16962;48.646;9.026;2023-02-19T04:19:06;1.70;;;1.60;;
30149;SDS011;16962;48.646;9.026;2023-02-19T04:21:59;2.45;;;1.65;;
30149;SDS011;16962;48.646;9.026;2023-02-19T04:24:49;2.33;;;1.48;;
30149;SDS011;16962;48.646;9.026;2023-02-19T04:27:39;1.40;;;1.30;;
30149;SDS011;16962;48.646;9.026;2023-02-19T04:30:26;1.98;;;1.50;;
30149;SDS011;16962;48.646;9.026;2023-02-19T04:33:14;2.45;;;1.40;;
30149;SDS011;16962;48.646;9.026;2023-02-19T04:36:03;1.60;;;1.23;;
30149;SDS011;16962;48.646;9.026;2023-02-19T04:38:57;2.42;;;1.35;;
30149;SDS011;16962;48.646;9.026;2023-02-19T04:41:44;1.40;;;1.30;;
30149;SDS011;16962;48.646;9.026;2023-02-19T04:44:35;1.20;;;1.10;;
30149;SDS011;16962;48.646;9.026;2023-02-19T04:47:22;1.27;;;1.08;;
30149;SDS011;16962;48.646;9.026;2023-02-19T04:50:13;1.15;;;1.00;;
30149;SDS011;16962;48.646;9.026;2023-02-19T04:53:04;2.55;;;1.05;;
30149;SDS011;16962;48.646;9.026;2023-02-19T04:55:54;1.23;;;0.93;;
30149;SDS011;16962;48.646;9.026;2023-02-19T04:58:41;1.30;;;1.00;;
30149;SDS011;16962;48.646;9.026;2023-02-19T05:01:31;0.93;;;0.90;;
30149;SDS011;16962;48.646;9.026;2023-02-19T05:04:19;0.70;;;0.70;;
30149;SDS011;16962;48.646;9.026;2023-02-19T05:07:06;0.70;;;0.70;;
30149;SDS011;16962;48.646;9.026;2023-02-19T05:10:08;0.88;;;0.73;;
30149;SDS011;16962;48.646;9.026;2023-02-19T05:13:09;0.63;;;0.63;;
30149;SDS011;16962;48.646;9.026;2023-02-19T05:16:02;1.75;;;0.80;;
30149;SDS011;16962;48.646;9.026;2023-02-19T05:18:51;1.40;;;0.63;;
30149;SDS011;16962;48.646;9.026;2023-02-19T05:21:46;1.10;;;1.00;;
30149;SDS011;16962;48.646;9.026;2023-02-19T05:24:39;0.65;;;0.65;;
30149;SDS011;16962;48.646;9.026;2023-02-19T05:30:16;1.00;;;0.80;;
30149;SDS011;16962;48.646;9.026;2023-02-19T05:33:03;0.70;;;0.70;;
30149;SDS011;16962;48.646;9.026;2023-02-19T05:35:52;0.80;;;0.73;;
30149;SDS011;16962;48.646;9.026;2023-02-19T05:38:40;0.70;;;0.70;;
30149;SDS011;16962;48.646;9.026;2023-02-19T05:41:28;1.58;;;0.80;;
30149;SDS011;16962;48.646;9.026;2023-02-19T05:44:18;0.70;;;0.70;;
30149;SDS011;16962;48.646;9.026;2023-02-19T05:47:06;1.05;;;0.90;;
30149;SDS011;16962;48.646;9.026;2023-02-19T05:49:56;1.33;;;1.10;;
30149;SDS011;16962;48.646;9.026;2023-02-19T05:52:49;2.55;;;0.90;;
30149;SDS011;16962;48.646;9.026;2023-02-19T05:55:36;0.90;;;0.90;;
30149;SDS011;16962;48.646;9.026;2023-02-19T05:58:23;0.70;;;0.70;;
30149;SDS011;16962;48.646;9.026;2023-02-19T06:01:18;0.60;;;0.60;;
30149;SDS011;16962;48.646;9.026;2023-02-19T06:04:09;0.93;;;0.68;;
30149;SDS011;16962;48.646;9.026;2023-02-19T06:06:57;0.60;;;0.60;;
30149;SDS011;16962;48.646;9.026;2023-02-19T06:09:44;0.70;;;0.70;;
30149;SDS011;16962;48.646;9.026;2023-02-19T06:12:38;0.68;;;0.68;;
30149;SDS011;16962;48.646;9.026;2023-02-19T06:15:25;0.70;;;0.70;;
30149;SDS011;16962;48.646;9.026;2023-02-19T06:18:14;0.60;;;0.60;;
30149;SDS011;16962;48.646;9.026;2023-02-19T06:21:05;0.60;;;0.60;;
30149;SDS011;16962;48.646;9.026;2023-02-19T06:23:55;0.55;;;0.55;;
30149;SDS011;16962;48.646;9.026;2023-02-19T06:26:43;0.50;;;0.50;;
30149;SDS011;16962;48.646;9.026;2023-02-19T06:29:30;0.60;;;0.60;;
30149;SDS011;16962;48.646;9.026;2023-02-19T06:32:18;0.57;;;0.57;;
30149;SDS011;16962;48.646;9.026;2023-02-19T06:35:13;0.80;;;0.80;;
30149;SDS011;16962;48.646;9.026;2023-02-19T06:42:00;1.27;;;0.70;;
30149;SDS011;16962;48.646;9.026;2023-02-19T06:44:55;0.50;;;0.50;;
30149;SDS011;16962;48.646;9.026;2023-02-19T06:47:51;0.60;;;0.60;;
30149;SDS011;16962;48.646;9.026;2023-02-19T06:50:41;0.88;;;0.77;;
30149;SDS011;16962;48.646;9.026;2023-02-19T06:53:37;2.47;;;0.70;;
30149;SDS011;16962;48.646;9.026;2023-02-19T06:56:40;0.52;;;0.50;;
30149;SDS011;16962;48.646;9.026;2023-02-19T06:59:27;0.65;;;0.65;;
30149;SDS011;16962;48.646;9.026;2023-02-19T07:02:30;0.60;;;0.60;;
30149;SDS011;16962;48.646;9.026;2023-02-19T07:05:23;0.60;;;0.60;;
30149;SDS011;16962;48.646;9.026;2023-02-19T07:08:16;0.68;;;0.68;;
30149;SDS011;16962;48.646;9.026;2023-02-19T07:11:15;1.13;;;0.82;;
30149;SDS011;16962;48.646;9.026;2023-02-19T07:14:05;0.85;;;0.70;;
30149;SDS011;16962;48.646;9.026;2023-02-19T07:17:09;1.15;;;0.80;;
30149;SDS011;16962;48.646;9.026;2023-02-19T07:24:11;0.90;;;0.90;;
30149;SDS011;16962;48.646;9.026;2023-02-19T07:31:06;0.95;;;0.95;;
30149;SDS011;16962;48.646;9.026;2023-02-19T07:33:56;1.17;;;0.80;;
30149;SDS011;16962;48.646;9.026;2023-02-19T07:36:43;1.10;;;1.08;;
30149;SDS011;16962;48.646;9.026;2023-02-19T07:39:31;1.23;;;1.02;;
30149;SDS011;16962;48.646;9.026;2023-02-19T07:42:18;1.58;;;1.48;;
30149;SDS011;16962;48.646;9.026;2023-02-19T07:45:05;1.40;;;1.30;;
30149;SDS011;16962;48.646;9.026;2023-02-19T07:47:53;2.47;;;1.77;;
30149;SDS011;16962;48.646;9.026;2023-02-19T07:50:49;1.40;;;1.30;;
30149;SDS011;16962;48.646;9.026;2023-02-19T07:53:40;2.15;;;1.50;;
30149;SDS011;16962;48.646;9.026;2023-02-19T10:43:52;9.35;;;2.70;;
30149;SDS011;16962;48.646;9.026;2023-02-19T10:55:15;4.00;;;1.65;;
30149;SDS011;16962;48.646;9.026;2023-02-19T10:58:23;5.07;;;1.88;;
30149;SDS011;16962;48.646;9.026;2023-02-19T11:02:00;5.80;;;1.92;;
30149;SDS011;16962;48.646;9.026;2023-02-19T11:05:33;4.28;;;2.08;;
30149;SDS011;16962;48.646;9.026;2023-02-19T11:12:46;3.15;;;1.98;;
30149;SDS011;16962;48.646;9.026;2023-02-19T11:16:18;6.40;;;1.65;;
30149;SDS011;16962;48.646;9.026;2023-02-19T11:22:54;6.43;;;1.77;;
30149;SDS011;16962;48.646;9.026;2023-02-19T11:25:58;4.10;;;1.90;;
30149;SDS011;16962;48.646;9.026;2023-02-19T11:28:57;2.80;;;1.60;;
30149;SDS011;16962;48.646;9.026;2023-02-19T11:31:54;5.60;;;2.05;;
30149;SDS011;16962;48.646;9.026;2023-02-19T11:34:42;6.65;;;1.55;;
30149;SDS011;16962;48.646;9.026;2023-02-19T11:44:03;7.65;;;2.30;;
30149;SDS011;16962;48.646;9.026;2023-02-19T11:47:38;5.15;;;1.83;;
30149;SDS011;16962;48.646;9.026;2023-02-19T11:53:47;5.75;;;1.73;;
30149;SDS011;16962;48.646;9.026;2023-02-19T12:06:45;7.85;;;2.15;;
30149;SDS011;16962;48.646;9.026;2023-02-19T12:16:40;5.07;;;1.23;;
30149;SDS011;16962;48.646;9.026;2023-02-19T12:22:35;7.55;;;2.05;;
30149;SDS011;16962;48.646;9.026;2023-02-19T12:32:25;4.88;;;1.88;;
30149;SDS011;16962;48.646;9.026;2023-02-19T12:35:29;3.95;;;1.55;;
30149;SDS011;16962;48.646;9.026;2023-02-19T12:39:01;5.35;;;1.85;;
30149;SDS011;16962;48.646;9.026;2023-02-19T12:45:27;5.28;;;1.48;;
30149;SDS011;16962;48.646;9.026;2023-02-19T12:51:20;3.25;;;1.10;;
30149;SDS011;16962;48.646;9.026;2023-02-19T12:57:43;2.10;;;1.50;;
30149;SDS011;16962;48.646;9.026;2023-02-19T13:01:01;3.17;;;1.45;;
30149;SDS011;16962;48.646;9.026;2023-02-19T13:07:22;4.00;;;1.50;;
30149;SDS011;16962;48.646;9.026;2023-02-19T13:10:27;4.15;;;2.20;;
30149;SDS011;16962;48.646;9.026;2023-02-19T13:13:44;1.45;;;1.02;;
30149;SDS011;16962;48.646;9.026;2023-02-19T13:16:49;4.88;;;1.48;;
30149;SDS011;16962;48.646;9.026;2023-02-19T13:19:50;4.57;;;1.95;;
30149;SDS011;16962;48.646;9.026;2023-02-19T13:36:48;4.15;;;1.70;;
30149;SDS011;16962;48.646;9.026;2023-02-19T13:39:35;3.10;;;1.83;;
30149;SDS011;16962;48.646;9.026;2023-02-19T13:42:37;8.98;;;1.90;;
30149;SDS011;16962;48.646;9.026;2023-02-19T13:52:41;6.38;;;1.80;;
30149;SDS011;16962;48.646;9.026;2023-02-19T14:02:40;3.42;;;1.67;;
30149;SDS011;16962;48.646;9.026;2023-02-19T14:08:57;3.10;;;1.40;;
30149;SDS011;16962;48.646;9.026;2023-02-19T14:14:55;4.07;;;1.60;;
30149;SDS011;16962;48.646;9.026;2023-02-19T14:17:47;6.68;;;2.35;;
30149;SDS011;16962;48.646;9.026;2023-02-19T14:20:43;5.28;;;2.03;;
30149;SDS011;16962;48.646;9.026;2023-02-19T14:23:34;11.30;;;3.17;;
30149;SDS011;16962;48.646;9.026;2023-02-19T14:26:33;8.10;;;2.17;;
30149;SDS011;16962;48.646;9.026;2023-02-19T14:29:24;5.78;;;2.35;;
30149;SDS011;16962;48.646;9.026;2023-02-19T14:32:18;5.97;;;1.88;;
30149;SDS011;16962;48.646;9.026;2023-02-19T14:35:21;8.10;;;2.70;;
30149;SDS011;16962;48.646;9.026;2023-02-19T14:38:24;4.45;;;1.92;;
30149;SDS011;16962;48.646;9.026;2023-02-19T14:41:19;6.00;;;1.95;;
30149;SDS011;16962;48.646;9.026;2023-02-19T14:44:14;6.57;;;2.40;;
30149;SDS011;16962;48.646;9.026;2023-02-19T14:47:27;4.55;;;1.92;;
30149;SDS011;16962;48.646;9.026;2023-02-19T14:53:40;6.15;;;2.38;;
30149;SDS011;16962;48.646;9.026;2023-02-19T14:56:41;6.97;;;2.30;;
30149;SDS011;16962;48.646;9.026;2023-02-19T15:00:57;5.05;;;1.85;;
30149;SDS011;16962;48.646;9.026;2023-02-19T15:04:02;3.97;;;1.55;;
30149;SDS011;16962;48.646;9.026;2023-02-19T15:07:10;6.30;;;1.77;;
30149;SDS011;16962;48.646;9.026;2023-02-19T15:10:18;3.22;;;1.70;;
30149;SDS011;16962;48.646;9.026;2023-02-19T15:13:07;2.58;;;1.35;;
30149;SDS011;16962;48.646;9.026;2023-02-19T15:16:18;3.50;;;1.45;;
30149;SDS011;16962;48.646;9.026;2023-02-19T15:19:12;6.10;;;1.70;;
30149;SDS011;16962;48.646;9.026;2023-02-19T15:22:06;4.30;;;2.03;;
30149;SDS011;16962;48.646;9.026;2023-02-19T15:25:00;4.18;;;1.52;;
30149;SDS011;16962;48.646;9.026;2023-02-19T15:27:53;9.80;;;2.05;;
30149;SDS011;16962;48.646;9.026;2023-02-19T15:30:41;6.90;;;2.22;;
30149;SDS011;16962;48.646;9.026;2023-02-19T15:33:30;7.45;;;2.22;;
30149;SDS011;16962;48.646;9.026;2023-02-19T15:36:21;5.85;;;2.38;;
30149;SDS011;16962;48.646;9.026;2023-02-19T15:39:45;8.52;;;3.10;;
30149;SDS011;16962;48.646;9.026;2023-02-19T15:42:49;6.35;;;2.50;;
30149;SDS011;16962;48.646;9.026;2023-02-19T15:45:45;8.00;;;2.30;;
30149;SDS011;16962;48.646;9.026;2023-02-19T15:48:56;5.97;;;2.33;;
30149;SDS011;16962;48.646;9.026;2023-02-19T15:51:55;5.47;;;2.00;;
30149;SDS011;16962;48.646;9.026;2023-02-19T15:54:58;2.78;;;1.48;;
30149;SDS011;16962;48.646;9.026;2023-02-19T16:01:28;10.02;;;4.10;;
30149;SDS011;16962;48.646;9.026;2023-02-19T16:04:28;8.82;;;3.72;;
30149;SDS011;16962;48.646;9.026;2023-02-19T16:08:05;6.22;;;3.13;;
30149;SDS011;16962;48.646;9.026;2023-02-19T16:11:36;7.63;;;3.33;;
30149;SDS011;16962;48.646;9.026;2023-02-19T16:14:30;9.23;;;3.13;;
30149;SDS011;16962;48.646;9.026;2023-02-19T16:17:20;8.02;;;3.13;;
30149;SDS011;16962;48.646;9.026;2023-02-19T16:20:16;3.17;;;2.88;;
30149;SDS011;16962;48.646;9.026;2023-02-19T16:23:11;6.30;;;3.30;;
30149;SDS011;16962;48.646;9.026;2023-02-19T16:26:04;9.98;;;3.40;;
30149;SDS011;16962;48.646;9.026;2023-02-19T16:28:54;8.68;;;3.65;;
30149;SDS011;16962;48.646;9.026;2023-02-19T16:31:57;8.10;;;3.58;;
30149;SDS011;16962;48.646;9.026;2023-02-19T16:34:55;5.50;;;2.95;;
30149;SDS011;16962;48.646;9.026;2023-02-19T16:41:04;13.68;;;4.07;;
30149;SDS011;16962;48.646;9.026;2023-02-19T16:44:05;9.18;;;3.70;;
30149;SDS011;16962;48.646;9.026;2023-02-19T16:47:19;6.78;;;3.42;;
30149;SDS011;16962;48.646;9.026;2023-02-19T16:50:21;9.45;;;3.85;;
30149;SDS011;16962;48.646;9.026;2023-02-19T16:53:19;11.15;;;5.07;;
30149;SDS011;16962;48.646;9.026;2023-02-19T16:56:32;8.68;;;4.75;;
30149;SDS011;16962;48.646;9.026;2023-02-19T16:59:22;7.13;;;4.45;;
30149;SDS011;16962;48.646;9.026;2023-02-19T17:02:13;9.20;;;5.28;;
30149;SDS011;16962;48.646;9.026;2023-02-19T17:05:09;10.95;;;5.18;;
30149;SDS011;16962;48.646;9.026;2023-02-19T17:07:56;14.10;;;5.55;;
30149;SDS011;16962;48.646;9.026;2023-02-19T17:10:44;11.93;;;5.15;;
30149;SDS011;16962;48.646;9.026;2023-02-19T17:13:34;11.68;;;5.65;;
30149;SDS011;16962;48.646;9.026;2023-02-19T17:16:22;10.30;;;4.45;;
30149;SDS011;16962;48.646;9.026;2023-02-19T17:19:17;13.95;;;5.20;;
30149;SDS011;16962;48.646;9.026;2023-02-19T17:22:05;11.13;;;5.38;;
30149;SDS011;16962;48.646;9.026;2023-02-19T17:24:53;14.50;;;5.30;;
30149;SDS011;16962;48.646;9.026;2023-02-19T17:27:40;8.35;;;4.35;;
30149;SDS011;16962;48.646;9.026;2023-02-19T17:30:29;11.70;;;4.00;;
30149;SDS011;16962;48.646;9.026;2023-02-19T17:33:17;13.10;;;4.20;;
30149;SDS011;16962;48.646;9.026;2023-02-19T17:36:07;9.90;;;4.05;;
30149;SDS011;16962;48.646;9.026;2023-02-19T17:39:02;7.68;;;3.28;;
30149;SDS011;16962;48.646;9.026;2023-02-19T17:41:52;7.32;;;4.05;;
30149;SDS011;16962;48.646;9.026;2023-02-19T17:44:46;7.57;;;3.28;;
30149;SDS011;16962;48.646;9.026;2023-02-19T17:47:49;4.88;;;3.03;;
30149;SDS011;16962;48.646;9.026;2023-02-19T17:50:36;7.45;;;3.28;;
30149;SDS011;16962;48.646;9.026;2023-02-19T17:53:24;8.55;;;3.90;;
30149;SDS011;16962;48.646;9.026;2023-02-19T17:56:17;13.18;;;4.53;;
30149;SDS011;16962;48.646;9.026;2023-02-19T17:59:06;9.55;;;4.60;;
30149;SDS011;16962;48.646;9.026;2023-02-19T18:01:53;13.40;;;4.78;;
30149;SDS011;16962;48.646;9.026;2023-02-19T18:04:54;6.78;;;3.67;;
30149;SDS011;16962;48.646;9.026;2023-02-19T18:07:41;8.38;;;4.32;;
30149;SDS011;16962;48.646;9.026;2023-02-19T18:10:32;10.40;;;4.90;;
30149;SDS011;16962;48.646;9.026;2023-02-19T18:13:20;8.50;;;4.18;;
30149;SDS011;16962;48.646;9.026;2023-02-19T18:16:25;11.90;;;4.50;;
30149;SDS011;16962;48.646;9.026;2023-02-19T18:19:14;8.43;;;3.60;;
30149;SDS011;16962;48.646;9.026;2023-02-19T18:22:01;11.27;;;3.58;;
30149;SDS011;16962;48.646;9.026;2023-02-19T18:25:02;9.52;;;3.97;;
30149;SDS011;16962;48.646;9.026;2023-02-19T18:27:50;9.77;;;4.72;;
30149;SDS011;16962;48.646;9.026;2023-02-19T18:30:38;11.75;;;4.82;;
30149;SDS011;16962;48.646;9.026;2023-02-19T18:33:25;8.30;;;3.72;;
30149;SDS011;16962;48.646;9.026;2023-02-19T18:36:13;8.43;;;3.08;;
30149;SDS011;16962;48.646;9.026;2023-02-19T18:39:00;10.68;;;3.47;;
30149;SDS011;16962;48.646;9.026;2023-02-19T18:41:48;4.45;;;2.92;;
30149;SDS011;16962;48.646;9.026;2023-02-19T18:44:37;12.95;;;3.90;;
30149;SDS011;16962;48.646;9.026;2023-02-19T18:47:24;8.57;;;3.70;;
30149;SDS011;16962;48.646;9.026;2023-02-19T18:50:15;7.05;;;3.20;;
30149;SDS011;16962;48.646;9.026;2023-02-19T18:53:03;11.70;;;3.45;;
30149;SDS011;16962;48.646;9.026;2023-02-19T18:55:56;11.75;;;3.38;;
30149;SDS011;16962;48.646;9.026;2023-02-19T18:58:47;12.43;;;4.10;;
30149;SDS011;16962;48.646;9.026;2023-02-19T19:01:36;11.10;;;4.25;;
30149;SDS011;16962;48.646;9.026;2023-02-19T19:04:26;9.52;;;3.90;;
30149;SDS011;16962;48.646;9.026;2023-02-19T19:07:14;9.15;;;3.60;;
30149;SDS011;16962;48.646;9.026;2023-02-19T19:10:01;6.30;;;3.53;;
30149;SDS011;16962;48.646;9.026;2023-02-19T19:15:55;9.60;;;4.13;;
30149;SDS011;16962;48.646;9.026;2023-02-19T19:18:42;7.90;;;3.70;;
30149;SDS011;16962;48.646;9.026;2023-02-19T19:21:30;6.15;;;3.22;;
30149;SDS011;16962;48.646;9.026;2023-02-19T19:24:17;11.23;;;4.55;;
30149;SDS011;16962;48.646;9.026;2023-02-19T19:27:07;11.82;;;3.80;;
30149;SDS011;16962;48.646;9.026;2023-02-19T19:30:19;7.80;;;4.05;;
30149;SDS011;16962;48.646;9.026;2023-02-19T19:33:07;9.32;;;4.68;;
30149;SDS011;16962;48.646;9.026;2023-02-19T19:35:59;13.57;;;4.22;;
30149;SDS011;16962;48.646;9.026;2023-02-19T19:38:47;7.13;;;4.00;;
30149;SDS011;16962;48.646;9.026;2023-02-19T19:44:42;11.60;;;4.70;;
30149;SDS011;16962;48.646;9.026;2023-02-19T19:47:34;7.78;;;4.13;;
30149;SDS011;16962;48.646;9.026;2023-02-19T19:50:21;9.00;;;4.00;;
30149;SDS011;16962;48.646;9.026;2023-02-19T19:53:08;11.10;;;5.07;;
30149;SDS011;16962;48.646;9.026;2023-02-19T19:55:56;11.05;;;5.13;;
30149;SDS011;16962;48.646;9.026;2023-02-19T19:58:44;11.65;;;4.45;;
30149;SDS011;16962;48.646;9.026;2023-02-19T20:01:33;14.35;;;5.45;;
30149;SDS011;16962;48.646;9.026;2023-02-19T20:04:23;8.90;;;3.92;;
30149;SDS011;16962;48.646;9.026;2023-02-19T20:07:11;10.77;;;4.53;;
30149;SDS011;16962;48.646;9.026;2023-02-19T20:09:59;8.43;;;4.22;;
30149;SDS011;16962;48.646;9.026;2023-02-19T20:12:46;12.13;;;4.57;;
30149;SDS011;16962;48.646;9.026;2023-02-19T20:15:34;13.60;;;4.35;;
30149;SDS011;16962;48.646;9.026;2023-02-19T20:18:21;8.98;;;4.03;;
30149;SDS011;16962;48.646;9.026;2023-02-19T20:21:11;9.18;;;4.22;;
30149;SDS011;16962;48.646;9.026;2023-02-19T20:23:59;8.50;;;4.00;;
30149;SDS011;16962;48.646;9.026;2023-02-19T20:26:58;12.50;;;4.72;;
30149;SDS011;16962;48.646;9.026;2023-02-19T20:29:48;14.15;;;5.25;;
30149;SDS011;16962;48.646;9.026;2023-02-19T20:32:36;9.70;;;4.07;;
30149;SDS011;16962;48.646;9.026;2023-02-19T20:35:23;10.70;;;3.90;;
30149;SDS011;16962;48.646;9.026;2023-02-19T20:38:20;10.75;;;3.92;;
30149;SDS011;16962;48.646;9.026;2023-02-19T20:41:25;12.15;;;4.18;;
30149;SDS011;16962;48.646;9.026;2023-02-19T20:44:13;7.57;;;4.00;;
30149;SDS011;16962;48.646;9.026;2023-02-19T20:47:01;8.85;;;3.65;;
30149;SDS011;16962;48.646;9.026;2023-02-19T20:49:48;8.00;;;4.03;;
30149;SDS011;16962;48.646;9.026;2023-02-19T20:52:38;8.90;;;4.05;;
30149;SDS011;16962;48.646;9.026;2023-02-19T20:55:25;8.52;;;4.50;;
30149;SDS011;16962;48.646;9.026;2023-02-19T20:58:14;9.48;;;4.78;;
30149;SDS011;16962;48.646;9.026;2023-02-19T21:01:03;10.10;;;4.75;;
30149;SDS011;16962;48.646;9.026;2023-02-19T21:03:51;9.85;;;4.38;;
30149;SDS011;16962;48.646;9.026;2023-02-19T21:06:40;12.80;;;5.13;;
30149;SDS011;16962;48.646;9.026;2023-02-19T21:09:28;15.43;;;5.05;;
30149;SDS011;16962;48.646;9.026;2023-02-19T21:12:16;12.25;;;4.88;;
30149;SDS011;16962;48.646;9.026;2023-02-19T21:15:04;10.02;;;4.80;;
30149;SDS011;16962;48.646;9.026;2023-02-19T21:17:55;11.45;;;4.45;;
30149;SDS011;16962;48.646;9.026;2023-02-19T21:20:42;8.65;;;4.50;;
30149;SDS011;16962;48.646;9.026;2023-02-19T21:23:30;11.77;;;4.82;;
30149;SDS011;16962;48.646;9.026;2023-02-19T21:26:17;14.68;;;4.60;;
30149;SDS011;16962;48.646;9.026;2023-02-19T21:29:06;10.13;;;4.60;;
30149;SDS011;16962;48.646;9.026;2023-02-19T21:31:56;11.18;;;4.60;;
30149;SDS011;16962;48.646;9.026;2023-02-19T21:34:44;9.43;;;4.38;;
30149;SDS011;16962;48.646;9.026;2023-02-19T21:37:32;11.45;;;4.50;;
30149;SDS011;16962;48.646;9.026;2023-02-19T21:40:20;11.80;;;4.20;;
30149;SDS011;16962;48.646;9.026;2023-02-19T21:43:09;10.25;;;4.55;;
30149;SDS011;16962;48.646;9.026;2023-02-19T21:46:01;15.63;;;4.78;;
30149;SDS011;16962;48.646;9.026;2023-02-19T21:48:49;9.80;;;4.78;;
30149;SDS011;16962;48.646;9.026;2023-02-19T21:51:39;11.60;;;4.78;;
30149;SDS011;16962;48.646;9.026;2023-02-19T21:54:27;11.43;;;4.95;;
30149;SDS011;16962;48.646;9.026;2023-02-19T21:57:15;9.57;;;5.13;;
30149;SDS011;16962;48.646;9.026;2023-02-19T22:00:03;13.73;;;5.30;;
30149;SDS011;16962;48.646;9.026;2023-02-19T22:02:51;14.15;;;5.18;;
30149;SDS011;16962;48.646;9.026;2023-02-19T22:05:38;14.38;;;5.85;;
30149;SDS011;16962;48.646;9.026;2023-02-19T22:08:26;14.15;;;5.00;;
30149;SDS011;16962;48.646;9.026;2023-02-19T22:11:13;7.00;;;4.38;;
30149;SDS011;16962;48.646;9.026;2023-02-19T22:14:02;7.53;;;4.10;;
30149;SDS011;16962;48.646;9.026;2023-02-19T22:16:50;8.68;;;4.45;;
30149;SDS011;16962;48.646;9.026;2023-02-19T22:19:40;10.40;;;4.43;;
30149;SDS011;16962;48.646;9.026;2023-02-19T22:22:27;9.00;;;4.70;;
30149;SDS011;16962;48.646;9.026;2023-02-19T22:25:15;11.38;;;4.70;;
30149;SDS011;16962;48.646;9.026;2023-02-19T22:28:04;10.52;;;4.70;;
30149;SDS011;16962;48.646;9.026;2023-02-19T22:30:53;12.73;;;5.05;;
30149;SDS011;16962;48.646;9.026;2023-02-19T22:33:42;12.55;;;4.72;;
30149;SDS011;16962;48.646;9.026;2023-02-19T22:36:30;9.30;;;4.80;;
30149;SDS011;16962;48.646;9.026;2023-02-19T22:42:11;10.25;;;4.40;;
30149;SDS011;16962;48.646;9.026;2023-02-19T22:45:00;12.52;;;5.20;;
30149;SDS011;16962;48.646;9.026;2023-02-19T22:47:48;10.30;;;4.57;;
30149;SDS011;16962;48.646;9.026;2023-02-19T22:50:35;12.48;;;4.63;;
30149;SDS011;16962;48.646;9.026;2023-02-19T22:53:24;14.27;;;4.60;;
30149;SDS011;16962;48.646;9.026;2023-02-19T22:56:12;14.40;;;4.53;;
30149;SDS011;16962;48.646;9.026;2023-02-19T22:59:03;12.18;;;4.25;;
30149;SDS011;16962;48.646;9.026;2023-02-19T23:01:50;11.65;;;5.50;;
30149;SDS011;16962;48.646;9.026;2023-02-19T23:04:38;13.85;;;4.50;;
30149;SDS011;16962;48.646;9.026;2023-02-19T23:07:25;10.20;;;4.90;;